sensor_id;sensor_type;location;lat;lon;timestamp;pressure;altitude;pressure_sealevel;temperature;humidity
57068;BME280;43391;47.448;18.904;2023-04-10T06:51:52;100419.34;;;6.10;100.00
57068;BME280;43391;47.448;18.904;2023-04-10T06:54:18;100412.97;;;6.30;100.00
57068;BME280;43391;47.448;18.904;2023-04-10T15:24:12;100035.19;;;16.80;38.65
57068;BME280;43391;47.448;18.904;2023-04-10T15:26:42;100028.56;;;17.62;37.20
57068;BME280;43391;47.448;18.904;2023-04-10T15:29:09;100025.22;;;18.31;36.47
57068;BME280;43391;47.448;18.904;2023-04-10T15:31:34;100027.16;;;19.42;33.48
57068;BME280;43391;47.448;18.904;2023-04-10T15:34:00;100024.53;;;20.08;32.54
57068;BME280;43391;47.448;18.904;2023-04-10T15:36:25;100019.56;;;19.60;32.71
57068;BME280;43391;47.448;18.904;2023-04-10T15:38:52;100027.34;;;20.16;32.73
57068;BME280;43391;47.448;18.904;2023-04-10T15:41:17;100011.84;;;20.44;31.63
57068;BME280;43391;47.448;18.904;2023-04-10T15:43:43;100011.88;;;20.64;31.82
57068;BME280;43391;47.448;18.904;2023-04-10T15:46:08;100009.00;;;20.14;32.09
57068;BME280;43391;47.448;18.904;2023-04-10T15:48:34;100008.13;;;19.50;32.48
57068;BME280;43391;47.448;18.904;2023-04-10T15:51:03;100008.03;;;19.73;32.33
57068;BME280;43391;47.448;18.904;2023-04-10T15:53:29;99997.75;;;19.70;32.49
57068;BME280;43391;47.448;18.904;2023-04-10T15:55:54;100000.06;;;19.63;32.74
57068;BME280;43391;47.448;18.904;2023-04-10T15:58:20;100003.25;;;19.67;33.19
57068;BME280;43391;47.448;18.904;2023-04-10T16:00:46;99999.41;;;19.38;32.81
57068;BME280;43391;47.448;18.904;2023-04-10T16:03:12;100003.09;;;19.14;33.79
57068;BME280;43391;47.448;18.904;2023-04-10T16:05:37;100001.03;;;19.18;33.66
57068;BME280;43391;47.448;18.904;2023-04-10T16:08:03;100001.75;;;19.31;33.50
57068;BME280;43391;47.448;18.904;2023-04-10T16:10:28;99997.22;;;19.22;33.04
57068;BME280;43391;47.448;18.904;2023-04-10T16:12:54;99993.38;;;19.26;33.78
57068;BME280;43391;47.448;18.904;2023-04-10T16:15:21;99988.75;;;18.84;34.36
57068;BME280;43391;47.448;18.904;2023-04-10T16:17:46;99995.72;;;18.62;35.71
57068;BME280;43391;47.448;18.904;2023-04-10T16:20:12;99995.69;;;18.28;35.18
57068;BME280;43391;47.448;18.904;2023-04-10T16:22:38;99991.28;;;18.17;35.43
57068;BME280;43391;47.448;18.904;2023-04-10T16:25:04;99988.25;;;17.63;35.61
57068;BME280;43391;47.448;18.904;2023-04-10T16:27:29;99984.63;;;16.91;36.73
57068;BME280;43391;47.448;18.904;2023-04-10T16:29:54;99990.34;;;16.32;37.99
57068;BME280;43391;47.448;18.904;2023-04-10T16:32:20;99981.81;;;15.90;39.63
57068;BME280;43391;47.448;18.904;2023-04-10T16:34:46;99979.16;;;15.64;41.18
57068;BME280;43391;47.448;18.904;2023-04-10T16:37:11;99973.69;;;15.26;40.67
57068;BME280;43391;47.448;18.904;2023-04-10T16:39:37;99978.50;;;15.20;41.45
57068;BME280;43391;47.448;18.904;2023-04-10T16:42:03;99982.81;;;15.06;41.47
57068;BME280;43391;47.448;18.904;2023-04-10T16:44:30;99979.59;;;14.88;41.26
57068;BME280;43391;47.448;18.904;2023-04-10T16:46:55;99967.94;;;14.65;42.59
57068;BME280;43391;47.448;18.904;2023-04-10T16:49:21;99971.94;;;14.41;43.24
57068;BME280;43391;47.448;18.904;2023-04-10T16:51:50;99965.50;;;14.18;44.03
57068;BME280;43391;47.448;18.904;2023-04-10T16:54:15;99962.97;;;14.02;44.39
57068;BME280;43391;47.448;18.904;2023-04-10T16:56:40;99967.31;;;13.87;45.28
57068;BME280;43391;47.448;18.904;2023-04-10T16:59:06;99972.59;;;13.71;46.59
57068;BME280;43391;47.448;18.904;2023-04-10T17:01:33;99968.91;;;13.59;46.47
57068;BME280;43391;47.448;18.904;2023-04-10T17:04:04;99970.78;;;13.40;47.39
57068;BME280;43391;47.448;18.904;2023-04-10T17:06:29;99968.44;;;13.36;47.37
57068;BME280;43391;47.448;18.904;2023-04-10T17:08:55;99962.06;;;13.25;47.30
57068;BME280;43391;47.448;18.904;2023-04-10T17:11:20;99962.56;;;13.16;47.83
57068;BME280;43391;47.448;18.904;2023-04-10T17:13:46;99957.78;;;13.08;48.33
57068;BME280;43391;47.448;18.904;2023-04-10T17:16:11;99961.16;;;12.94;48.70
57068;BME280;43391;47.448;18.904;2023-04-10T17:18:36;99959.69;;;12.88;49.37
57068;BME280;43391;47.448;18.904;2023-04-10T17:21:02;99963.56;;;12.81;50.35
57068;BME280;43391;47.448;18.904;2023-04-10T17:23:28;99963.63;;;12.63;50.87
57068;BME280;43391;47.448;18.904;2023-04-10T17:25:53;99960.75;;;12.52;50.75
57068;BME280;43391;47.448;18.904;2023-04-10T17:28:19;99957.81;;;12.42;51.47
57068;BME280;43391;47.448;18.904;2023-04-10T17:30:44;99958.19;;;12.34;51.74
57068;BME280;43391;47.448;18.904;2023-04-10T17:33:10;99954.94;;;12.31;51.69
57068;BME280;43391;47.448;18.904;2023-04-10T17:35:35;99961.34;;;12.23;52.54
57068;BME280;43391;47.448;18.904;2023-04-10T17:38:01;99959.06;;;12.17;53.12
57068;BME280;43391;47.448;18.904;2023-04-10T17:40:26;99957.63;;;12.12;53.82
57068;BME280;43391;47.448;18.904;2023-04-10T17:42:51;99953.78;;;12.01;53.55
57068;BME280;43391;47.448;18.904;2023-04-10T17:45:17;99963.59;;;11.96;54.63
57068;BME280;43391;47.448;18.904;2023-04-10T17:47:43;99964.03;;;11.87;55.26
57068;BME280;43391;47.448;18.904;2023-04-10T17:50:09;99963.19;;;11.86;55.28
57068;BME280;43391;47.448;18.904;2023-04-10T17:52:34;99971.00;;;11.86;55.48
57068;BME280;43391;47.448;18.904;2023-04-10T17:55:00;99963.50;;;11.80;56.37
57068;BME280;43391;47.448;18.904;2023-04-10T17:57:26;99973.38;;;11.73;57.18
57068;BME280;43391;47.448;18.904;2023-04-10T17:59:51;99972.69;;;11.69;57.75
57068;BME280;43391;47.448;18.904;2023-04-10T18:02:17;99971.38;;;11.61;58.69
57068;BME280;43391;47.448;18.904;2023-04-10T18:04:42;99970.81;;;11.54;59.15
57068;BME280;43391;47.448;18.904;2023-04-10T18:07:08;99967.75;;;11.46;59.54
57068;BME280;43391;47.448;18.904;2023-04-10T18:09:33;99972.25;;;11.42;60.04
57068;BME280;43391;47.448;18.904;2023-04-10T18:11:58;99968.28;;;11.35;60.92
57068;BME280;43391;47.448;18.904;2023-04-10T18:14:25;99965.75;;;11.33;61.67
57068;BME280;43391;47.448;18.904;2023-04-10T18:16:50;99964.38;;;11.26;62.46
57068;BME280;43391;47.448;18.904;2023-04-10T18:19:16;99966.19;;;11.24;63.32
57068;BME280;43391;47.448;18.904;2023-04-10T18:21:41;99973.22;;;11.22;63.77
57068;BME280;43391;47.448;18.904;2023-04-10T18:24:07;99964.84;;;11.15;65.03
57068;BME280;43391;47.448;18.904;2023-04-10T18:26:36;99966.00;;;11.09;65.46
57068;BME280;43391;47.448;18.904;2023-04-10T18:29:02;99966.13;;;11.06;66.71
57068;BME280;43391;47.448;18.904;2023-04-10T18:31:27;99970.41;;;11.07;66.76
57068;BME280;43391;47.448;18.904;2023-04-10T18:33:53;99969.78;;;11.02;67.59
57068;BME280;43391;47.448;18.904;2023-04-10T18:36:18;99972.63;;;10.97;68.22
57068;BME280;43391;47.448;18.904;2023-04-10T18:38:51;99972.69;;;10.96;68.45
57068;BME280;43391;47.448;18.904;2023-04-10T18:41:16;99971.13;;;10.92;68.90
57068;BME280;43391;47.448;18.904;2023-04-10T18:43:42;99977.38;;;10.87;69.22
57068;BME280;43391;47.448;18.904;2023-04-10T18:46:09;99980.06;;;10.86;69.54
57068;BME280;43391;47.448;18.904;2023-04-10T18:48:40;99984.41;;;10.85;69.77
57068;BME280;43391;47.448;18.904;2023-04-10T18:51:08;99980.88;;;10.86;69.76
57068;BME280;43391;47.448;18.904;2023-04-10T18:53:34;99985.44;;;10.81;70.50
57068;BME280;43391;47.448;18.904;2023-04-10T18:55:59;99988.91;;;10.82;71.44
57068;BME280;43391;47.448;18.904;2023-04-10T18:58:24;99983.13;;;10.75;72.67
57068;BME280;43391;47.448;18.904;2023-04-10T19:00:52;99992.81;;;10.71;73.48
57068;BME280;43391;47.448;18.904;2023-04-10T19:03:17;99983.81;;;10.59;73.61
57068;BME280;43391;47.448;18.904;2023-04-10T19:05:42;99984.78;;;10.57;73.97
57068;BME280;43391;47.448;18.904;2023-04-10T19:08:08;99988.03;;;10.41;74.49
57068;BME280;43391;47.448;18.904;2023-04-10T19:10:38;99990.97;;;10.33;75.06
57068;BME280;43391;47.448;18.904;2023-04-10T19:13:03;99984.78;;;10.36;74.99
57068;BME280;43391;47.448;18.904;2023-04-10T19:15:28;99984.03;;;10.34;75.25
57068;BME280;43391;47.448;18.904;2023-04-10T19:17:54;99999.59;;;10.34;76.02
57068;BME280;43391;47.448;18.904;2023-04-10T19:20:20;100002.38;;;10.29;77.43
57068;BME280;43391;47.448;18.904;2023-04-10T19:22:46;100012.97;;;10.24;78.15
57068;BME280;43391;47.448;18.904;2023-04-10T19:25:12;100004.41;;;10.22;77.77
57068;BME280;43391;47.448;18.904;2023-04-10T19:27:37;100015.56;;;10.24;77.79
57068;BME280;43391;47.448;18.904;2023-04-10T19:30:03;100016.72;;;10.38;78.44
57068;BME280;43391;47.448;18.904;2023-04-10T19:32:29;100014.66;;;10.46;79.63
57068;BME280;43391;47.448;18.904;2023-04-10T19:34:55;100025.69;;;10.52;81.39
57068;BME280;43391;47.448;18.904;2023-04-10T19:37:21;100029.78;;;10.57;82.55
57068;BME280;43391;47.448;18.904;2023-04-10T19:39:46;100015.75;;;10.61;83.12
57068;BME280;43391;47.448;18.904;2023-04-10T19:42:12;100011.31;;;10.63;83.43
57068;BME280;43391;47.448;18.904;2023-04-10T19:44:37;100009.66;;;10.62;83.38
57068;BME280;43391;47.448;18.904;2023-04-10T19:47:03;100007.00;;;10.64;82.95
57068;BME280;43391;47.448;18.904;2023-04-10T19:49:34;100007.97;;;10.61;84.34
57068;BME280;43391;47.448;18.904;2023-04-10T19:52:00;100006.47;;;10.56;86.25
57068;BME280;43391;47.448;18.904;2023-04-10T19:54:26;99998.56;;;10.59;85.66
57068;BME280;43391;47.448;18.904;2023-04-10T19:56:52;100002.19;;;10.55;86.04
57068;BME280;43391;47.448;18.904;2023-04-10T19:59:17;100003.28;;;10.49;87.37
57068;BME280;43391;47.448;18.904;2023-04-10T20:01:43;99998.97;;;10.49;87.27
57068;BME280;43391;47.448;18.904;2023-04-10T20:04:08;99996.72;;;10.40;87.67
57068;BME280;43391;47.448;18.904;2023-04-10T20:06:34;99993.56;;;10.33;87.83
57068;BME280;43391;47.448;18.904;2023-04-10T20:08:59;100001.34;;;10.33;87.75
57068;BME280;43391;47.448;18.904;2023-04-10T20:11:25;99994.25;;;10.37;87.98
57068;BME280;43391;47.448;18.904;2023-04-10T20:13:57;99989.63;;;10.45;88.00
57068;BME280;43391;47.448;18.904;2023-04-10T20:16:22;99986.91;;;10.28;87.74
57068;BME280;43391;47.448;18.904;2023-04-10T20:18:48;99979.34;;;10.21;88.07
57068;BME280;43391;47.448;18.904;2023-04-10T20:21:13;99978.47;;;10.22;88.46
57068;BME280;43391;47.448;18.904;2023-04-10T20:23:38;99977.03;;;10.15;87.45
57068;BME280;43391;47.448;18.904;2023-04-10T20:26:04;99971.13;;;10.12;86.78
57068;BME280;43391;47.448;18.904;2023-04-10T20:28:30;99962.50;;;10.11;86.33
57068;BME280;43391;47.448;18.904;2023-04-10T20:30:56;99954.16;;;10.04;86.63
57068;BME280;43391;47.448;18.904;2023-04-10T20:33:21;99950.06;;;9.99;86.73
57068;BME280;43391;47.448;18.904;2023-04-10T20:35:47;99948.22;;;10.01;86.67
57068;BME280;43391;47.448;18.904;2023-04-10T20:38:12;99947.47;;;9.99;85.96
57068;BME280;43391;47.448;18.904;2023-04-10T20:40:37;99958.81;;;9.96;85.90
57068;BME280;43391;47.448;18.904;2023-04-10T20:43:03;99957.66;;;9.82;86.86
57068;BME280;43391;47.448;18.904;2023-04-10T20:45:34;99958.75;;;9.77;87.81
57068;BME280;43391;47.448;18.904;2023-04-10T20:48:00;99947.78;;;9.70;87.59
57068;BME280;43391;47.448;18.904;2023-04-10T20:50:25;99950.94;;;9.56;88.69
57068;BME280;43391;47.448;18.904;2023-04-10T20:52:50;99955.16;;;9.36;89.46
57068;BME280;43391;47.448;18.904;2023-04-10T20:55:16;99960.13;;;9.20;91.14
57068;BME280;43391;47.448;18.904;2023-04-10T20:57:41;99955.47;;;9.06;91.84
57068;BME280;43391;47.448;18.904;2023-04-10T21:00:07;99952.34;;;8.98;92.38
57068;BME280;43391;47.448;18.904;2023-04-10T21:02:33;99955.69;;;8.77;92.83
57068;BME280;43391;47.448;18.904;2023-04-10T21:04:58;99956.16;;;8.63;93.97
57068;BME280;43391;47.448;18.904;2023-04-10T21:07:24;99952.22;;;8.53;95.21
57068;BME280;43391;47.448;18.904;2023-04-10T21:09:49;99948.34;;;8.41;96.78
57068;BME280;43391;47.448;18.904;2023-04-10T21:12:14;99942.47;;;8.36;97.66
57068;BME280;43391;47.448;18.904;2023-04-10T21:14:40;99944.09;;;8.38;98.22
57068;BME280;43391;47.448;18.904;2023-04-10T21:17:05;99943.88;;;8.45;98.03
57068;BME280;43391;47.448;18.904;2023-04-10T21:19:30;99948.53;;;8.60;97.00
57068;BME280;43391;47.448;18.904;2023-04-10T21:21:56;99948.69;;;8.56;96.27
57068;BME280;43391;47.448;18.904;2023-04-10T21:24:22;99945.84;;;8.38;96.31
